sensor_id;sensor_type;location;lat;lon;timestamp;temperature;humidity
17968;DHT22;9109;48.050;11.696;2023-07-24T03:47:26;18.50;99.90
17968;DHT22;9109;48.050;11.696;2023-07-24T03:50:29;18.40;99.90
17968;DHT22;9109;48.050;11.696;2023-07-24T03:53:31;18.40;99.90
17968;DHT22;9109;48.050;11.696;2023-07-24T03:56:33;18.40;99.90
17968;DHT22;9109;48.050;11.696;2023-07-24T03:59:38;18.50;99.90
17968;DHT22;9109;48.050;11.696;2023-07-24T04:03:03;18.60;99.90
17968;DHT22;9109;48.050;11.696;2023-07-24T04:06:07;18.60;99.90
17968;DHT22;9109;48.050;11.696;2023-07-24T04:09:26;18.70;99.90
17968;DHT22;9109;48.050;11.696;2023-07-24T04:12:46;18.80;99.90
17968;DHT22;9109;48.050;11.696;2023-07-24T04:15:56;18.70;99.90
17968;DHT22;9109;48.050;11.696;2023-07-24T04:19:10;18.80;99.90
17968;DHT22;9109;48.050;11.696;2023-07-24T04:22:18;19.00;99.90
17968;DHT22;9109;48.050;11.696;2023-07-24T04:25:31;19.20;99.90
17968;DHT22;9109;48.050;11.696;2023-07-24T04:28:38;19.40;99.90
17968;DHT22;9109;48.050;11.696;2023-07-24T04:31:41;19.60;99.90
17968;DHT22;9109;48.050;11.696;2023-07-24T04:38:25;19.70;99.90
17968;DHT22;9109;48.050;11.696;2023-07-24T04:41:27;19.70;99.90
17968;DHT22;9109;48.050;11.696;2023-07-24T04:44:29;19.80;99.90
17968;DHT22;9109;48.050;11.696;2023-07-24T04:47:32;19.80;99.90
17968;DHT22;9109;48.050;11.696;2023-07-24T04:50:34;19.80;99.90
17968;DHT22;9109;48.050;11.696;2023-07-24T04:53:38;19.70;99.90
17968;DHT22;9109;48.050;11.696;2023-07-24T04:56:40;19.70;99.90
17968;DHT22;9109;48.050;11.696;2023-07-24T04:59:43;19.70;99.90
17968;DHT22;9109;48.050;11.696;2023-07-24T05:02:46;19.60;99.90
17968;DHT22;9109;48.050;11.696;2023-07-24T05:05:54;19.60;99.90
17968;DHT22;9109;48.050;11.696;2023-07-24T05:09:02;19.70;99.90
17968;DHT22;9109;48.050;11.696;2023-07-24T05:12:05;19.50;99.90
17968;DHT22;9109;48.050;11.696;2023-07-24T05:15:08;19.30;99.90
17968;DHT22;9109;48.050;11.696;2023-07-24T05:18:12;19.20;99.90
17968;DHT22;9109;48.050;11.696;2023-07-24T05:21:18;19.30;99.90
17968;DHT22;9109;48.050;11.696;2023-07-24T05:24:22;19.60;99.90
17968;DHT22;9109;48.050;11.696;2023-07-24T05:27:24;19.70;99.90
17968;DHT22;9109;48.050;11.696;2023-07-24T05:30:27;19.80;99.90
17968;DHT22;9109;48.050;11.696;2023-07-24T05:33:29;19.90;99.90
17968;DHT22;9109;48.050;11.696;2023-07-24T05:36:31;20.00;99.90
17968;DHT22;9109;48.050;11.696;2023-07-24T05:39:37;20.00;99.90
17968;DHT22;9109;48.050;11.696;2023-07-24T05:42:39;20.10;99.90
17968;DHT22;9109;48.050;11.696;2023-07-24T05:45:44;20.20;99.90
17968;DHT22;9109;48.050;11.696;2023-07-24T05:48:46;20.30;99.90
17968;DHT22;9109;48.050;11.696;2023-07-24T05:51:48;20.50;99.90
17968;DHT22;9109;48.050;11.696;2023-07-24T05:54:51;20.60;99.90
17968;DHT22;9109;48.050;11.696;2023-07-24T05:57:53;20.70;99.90
17968;DHT22;9109;48.050;11.696;2023-07-24T06:00:55;20.90;99.90
17968;DHT22;9109;48.050;11.696;2023-07-24T06:03:57;21.10;99.90
17968;DHT22;9109;48.050;11.696;2023-07-24T06:06:59;21.20;99.90
17968;DHT22;9109;48.050;11.696;2023-07-24T06:10:02;21.40;99.90
17968;DHT22;9109;48.050;11.696;2023-07-24T06:13:04;21.70;99.90
17968;DHT22;9109;48.050;11.696;2023-07-24T06:16:06;21.90;99.90
17968;DHT22;9109;48.050;11.696;2023-07-24T06:19:08;22.10;99.90
17968;DHT22;9109;48.050;11.696;2023-07-24T06:22:10;22.30;99.90
17968;DHT22;9109;48.050;11.696;2023-07-24T06:25:14;22.30;99.90
17968;DHT22;9109;48.050;11.696;2023-07-24T06:28:16;22.20;98.30
17968;DHT22;9109;48.050;11.696;2023-07-24T06:31:18;22.20;98.10
17968;DHT22;9109;48.050;11.696;2023-07-24T06:34:19;22.20;98.30
17968;DHT22;9109;48.050;11.696;2023-07-24T06:37:21;22.30;97.60
17968;DHT22;9109;48.050;11.696;2023-07-24T06:40:25;22.60;97.10
17968;DHT22;9109;48.050;11.696;2023-07-24T06:43:27;22.90;96.10
17968;DHT22;9109;48.050;11.696;2023-07-24T06:46:29;23.20;94.20
17968;DHT22;9109;48.050;11.696;2023-07-24T06:49:31;23.40;93.30
17968;DHT22;9109;48.050;11.696;2023-07-24T06:52:33;23.70;91.60
17968;DHT22;9109;48.050;11.696;2023-07-24T06:55:36;23.80;91.80
17968;DHT22;9109;48.050;11.696;2023-07-24T06:58:38;23.90;91.90
17968;DHT22;9109;48.050;11.696;2023-07-24T07:01:40;24.00;89.90
17968;DHT22;9109;48.050;11.696;2023-07-24T07:04:42;24.20;87.60
17968;DHT22;9109;48.050;11.696;2023-07-24T07:07:44;24.30;86.80
17968;DHT22;9109;48.050;11.696;2023-07-24T07:10:54;24.10;87.00
17968;DHT22;9109;48.050;11.696;2023-07-24T07:13:56;24.20;87.00
17968;DHT22;9109;48.050;11.696;2023-07-24T07:16:58;24.30;87.20
17968;DHT22;9109;48.050;11.696;2023-07-24T07:20:02;24.60;82.00
17968;DHT22;9109;48.050;11.696;2023-07-24T07:23:04;24.90;80.40
17968;DHT22;9109;48.050;11.696;2023-07-24T07:26:07;25.00;80.60
17968;DHT22;9109;48.050;11.696;2023-07-24T07:29:09;25.00;78.10
17968;DHT22;9109;48.050;11.696;2023-07-24T07:32:11;24.80;78.80
17968;DHT22;9109;48.050;11.696;2023-07-24T07:35:13;24.60;79.20
17968;DHT22;9109;48.050;11.696;2023-07-24T07:38:14;24.50;81.90
17968;DHT22;9109;48.050;11.696;2023-07-24T07:41:18;24.40;84.70
17968;DHT22;9109;48.050;11.696;2023-07-24T07:44:20;24.30;85.20
17968;DHT22;9109;48.050;11.696;2023-07-24T07:47:21;24.10;85.40
17968;DHT22;9109;48.050;11.696;2023-07-24T07:50:23;23.90;84.30
17968;DHT22;9109;48.050;11.696;2023-07-24T07:53:25;23.70;84.60
17968;DHT22;9109;48.050;11.696;2023-07-24T07:56:29;23.50;86.70
17968;DHT22;9109;48.050;11.696;2023-07-24T07:59:31;23.40;87.10
17968;DHT22;9109;48.050;11.696;2023-07-24T08:02:34;23.30;88.80
17968;DHT22;9109;48.050;11.696;2023-07-24T08:05:40;23.20;90.00
17968;DHT22;9109;48.050;11.696;2023-07-24T08:08:41;23.10;90.80
17968;DHT22;9109;48.050;11.696;2023-07-24T08:11:45;23.00;90.50
17968;DHT22;9109;48.050;11.696;2023-07-24T08:14:47;23.00;91.60
17968;DHT22;9109;48.050;11.696;2023-07-24T08:17:48;23.20;91.10
17968;DHT22;9109;48.050;11.696;2023-07-24T08:20:50;23.30;91.30
17968;DHT22;9109;48.050;11.696;2023-07-24T08:23:52;23.30;90.60
17968;DHT22;9109;48.050;11.696;2023-07-24T08:26:56;23.10;90.90
17968;DHT22;9109;48.050;11.696;2023-07-24T08:29:58;23.20;91.20
17968;DHT22;9109;48.050;11.696;2023-07-24T08:32:59;23.10;90.80
17968;DHT22;9109;48.050;11.696;2023-07-24T08:36:02;23.00;91.60
17968;DHT22;9109;48.050;11.696;2023-07-24T08:39:05;23.10;92.20
17968;DHT22;9109;48.050;11.696;2023-07-24T08:42:11;23.10;92.40
17968;DHT22;9109;48.050;11.696;2023-07-24T08:45:14;23.10;91.50
17968;DHT22;9109;48.050;11.696;2023-07-24T08:48:18;23.00;91.80
17968;DHT22;9109;48.050;11.696;2023-07-24T08:51:21;23.00;91.80
17968;DHT22;9109;48.050;11.696;2023-07-24T08:54:24;23.00;91.50
17968;DHT22;9109;48.050;11.696;2023-07-24T08:57:29;23.00;91.60
17968;DHT22;9109;48.050;11.696;2023-07-24T09:00:31;23.10;91.20
17968;DHT22;9109;48.050;11.696;2023-07-24T09:03:33;23.10;91.80
17968;DHT22;9109;48.050;11.696;2023-07-24T09:06:36;23.30;91.00
17968;DHT22;9109;48.050;11.696;2023-07-24T09:09:39;23.30;90.70
17968;DHT22;9109;48.050;11.696;2023-07-24T09:12:43;23.40;90.80
17968;DHT22;9109;48.050;11.696;2023-07-24T09:15:45;23.40;90.60
17968;DHT22;9109;48.050;11.696;2023-07-24T09:18:47;23.50;90.40
17968;DHT22;9109;48.050;11.696;2023-07-24T09:21:51;23.40;90.60
17968;DHT22;9109;48.050;11.696;2023-07-24T09:24:55;23.30;90.80
17968;DHT22;9109;48.050;11.696;2023-07-24T09:27:59;23.40;90.60
17968;DHT22;9109;48.050;11.696;2023-07-24T09:31:01;23.50;91.00
17968;DHT22;9109;48.050;11.696;2023-07-24T09:34:03;23.60;90.90
17968;DHT22;9109;48.050;11.696;2023-07-24T09:37:05;23.80;90.90
17968;DHT22;9109;48.050;11.696;2023-07-24T09:40:09;24.10;86.60
17968;DHT22;9109;48.050;11.696;2023-07-24T09:43:17;24.40;85.50
17968;DHT22;9109;48.050;11.696;2023-07-24T09:46:19;24.70;86.20
17968;DHT22;9109;48.050;11.696;2023-07-24T09:49:21;25.00;82.20
17968;DHT22;9109;48.050;11.696;2023-07-24T09:52:24;25.20;79.20
17968;DHT22;9109;48.050;11.696;2023-07-24T09:55:31;25.60;77.30
17968;DHT22;9109;48.050;11.696;2023-07-24T09:58:39;25.80;72.50
17968;DHT22;9109;48.050;11.696;2023-07-24T10:01:42;25.70;74.30
17968;DHT22;9109;48.050;11.696;2023-07-24T10:04:44;25.70;71.70
17968;DHT22;9109;48.050;11.696;2023-07-24T10:07:47;25.90;74.40
17968;DHT22;9109;48.050;11.696;2023-07-24T10:10:49;26.10;73.50
17968;DHT22;9109;48.050;11.696;2023-07-24T10:13:55;26.10;70.50
17968;DHT22;9109;48.050;11.696;2023-07-24T10:16:57;26.20;70.80
17968;DHT22;9109;48.050;11.696;2023-07-24T10:20:03;26.40;71.20
17968;DHT22;9109;48.050;11.696;2023-07-24T10:23:09;26.60;69.10
17968;DHT22;9109;48.050;11.696;2023-07-24T10:26:11;26.70;69.80
17968;DHT22;9109;48.050;11.696;2023-07-24T10:29:14;26.80;64.30
17968;DHT22;9109;48.050;11.696;2023-07-24T10:32:17;26.90;64.60
17968;DHT22;9109;48.050;11.696;2023-07-24T10:35:19;26.90;63.50
17968;DHT22;9109;48.050;11.696;2023-07-24T10:38:34;26.90;64.10
17968;DHT22;9109;48.050;11.696;2023-07-24T10:41:38;26.80;64.50
17968;DHT22;9109;48.050;11.696;2023-07-24T10:44:43;27.00;64.40
17968;DHT22;9109;48.050;11.696;2023-07-24T10:47:45;27.20;65.90
17968;DHT22;9109;48.050;11.696;2023-07-24T10:50:48;27.30;67.60
17968;DHT22;9109;48.050;11.696;2023-07-24T10:53:51;27.50;65.50
17968;DHT22;9109;48.050;11.696;2023-07-24T10:57:08;27.50;65.80
17968;DHT22;9109;48.050;11.696;2023-07-24T11:04:33;27.30;65.20
17968;DHT22;9109;48.050;11.696;2023-07-24T11:07:35;27.30;64.10
17968;DHT22;9109;48.050;11.696;2023-07-24T11:10:37;27.20;62.80
17968;DHT22;9109;48.050;11.696;2023-07-24T11:13:39;27.30;63.20
17968;DHT22;9109;48.050;11.696;2023-07-24T11:20:38;27.80;62.40
17968;DHT22;9109;48.050;11.696;2023-07-24T11:24:06;27.80;62.30
17968;DHT22;9109;48.050;11.696;2023-07-24T11:27:22;27.90;63.00
17968;DHT22;9109;48.050;11.696;2023-07-24T11:30:45;27.90;63.00
17968;DHT22;9109;48.050;11.696;2023-07-24T11:34:06;28.10;63.50
17968;DHT22;9109;48.050;11.696;2023-07-24T11:37:09;28.10;62.50
17968;DHT22;9109;48.050;11.696;2023-07-24T11:40:11;27.90;60.10
17968;DHT22;9109;48.050;11.696;2023-07-24T11:43:20;27.90;60.20
17968;DHT22;9109;48.050;11.696;2023-07-24T11:46:29;27.70;59.70
17968;DHT22;9109;48.050;11.696;2023-07-24T11:49:33;27.80;58.50
17968;DHT22;9109;48.050;11.696;2023-07-24T11:52:39;28.00;57.60
17968;DHT22;9109;48.050;11.696;2023-07-24T11:55:43;28.00;57.30
17968;DHT22;9109;48.050;11.696;2023-07-24T11:58:50;28.10;60.20
17968;DHT22;9109;48.050;11.696;2023-07-24T12:01:52;28.20;61.50
17968;DHT22;9109;48.050;11.696;2023-07-24T12:05:09;28.10;61.40
17968;DHT22;9109;48.050;11.696;2023-07-24T12:08:33;28.00;60.00
17968;DHT22;9109;48.050;11.696;2023-07-24T12:11:44;27.90;61.80
17968;DHT22;9109;48.050;11.696;2023-07-24T12:15:00;27.80;61.00
17968;DHT22;9109;48.050;11.696;2023-07-24T12:18:09;27.80;62.00
17968;DHT22;9109;48.050;11.696;2023-07-24T12:21:16;28.00;63.50
17968;DHT22;9109;48.050;11.696;2023-07-24T12:24:18;28.20;63.70
17968;DHT22;9109;48.050;11.696;2023-07-24T12:31:30;28.00;62.40
17968;DHT22;9109;48.050;11.696;2023-07-24T12:34:32;27.90;64.40
17968;DHT22;9109;48.050;11.696;2023-07-24T12:37:36;27.80;64.30
17968;DHT22;9109;48.050;11.696;2023-07-24T12:40:39;27.40;63.60
17968;DHT22;9109;48.050;11.696;2023-07-24T12:43:42;26.50;75.20
17968;DHT22;9109;48.050;11.696;2023-07-24T12:46:44;25.30;86.40
17968;DHT22;9109;48.050;11.696;2023-07-24T12:49:46;24.60;95.10
17968;DHT22;9109;48.050;11.696;2023-07-24T12:52:51;24.00;99.90
17968;DHT22;9109;48.050;11.696;2023-07-24T12:55:56;23.50;99.90
17968;DHT22;9109;48.050;11.696;2023-07-24T12:59:09;23.20;99.90
17968;DHT22;9109;48.050;11.696;2023-07-24T13:02:29;23.00;99.90
17968;DHT22;9109;48.050;11.696;2023-07-24T13:05:36;22.70;99.90
17968;DHT22;9109;48.050;11.696;2023-07-24T13:12:47;22.00;99.90
17968;DHT22;9109;48.050;11.696;2023-07-24T13:15:49;21.70;99.90
17968;DHT22;9109;48.050;11.696;2023-07-24T13:18:52;21.80;99.90
17968;DHT22;9109;48.050;11.696;2023-07-24T13:21:56;21.80;99.90
17968;DHT22;9109;48.050;11.696;2023-07-24T13:25:00;21.90;99.90
17968;DHT22;9109;48.050;11.696;2023-07-24T13:28:12;21.80;99.90
17968;DHT22;9109;48.050;11.696;2023-07-24T13:31:15;22.00;99.90
17968;DHT22;9109;48.050;11.696;2023-07-24T13:34:45;22.30;99.90
17968;DHT22;9109;48.050;11.696;2023-07-24T13:37:50;22.20;99.90
17968;DHT22;9109;48.050;11.696;2023-07-24T13:40:52;22.20;99.90
17968;DHT22;9109;48.050;11.696;2023-07-24T13:43:55;22.40;99.90
17968;DHT22;9109;48.050;11.696;2023-07-24T13:46:57;22.30;99.90
17968;DHT22;9109;48.050;11.696;2023-07-24T13:50:02;22.30;99.90
17968;DHT22;9109;48.050;11.696;2023-07-24T13:53:09;22.50;99.90
17968;DHT22;9109;48.050;11.696;2023-07-24T13:56:11;22.70;99.90
17968;DHT22;9109;48.050;11.696;2023-07-24T13:59:16;22.90;99.90
17968;DHT22;9109;48.050;11.696;2023-07-24T14:02:18;22.90;99.90
17968;DHT22;9109;48.050;11.696;2023-07-24T14:05:20;23.00;99.90
17968;DHT22;9109;48.050;11.696;2023-07-24T14:08:24;23.20;99.90
17968;DHT22;9109;48.050;11.696;2023-07-24T14:11:36;23.30;99.90
17968;DHT22;9109;48.050;11.696;2023-07-24T14:14:39;23.40;99.90
17968;DHT22;9109;48.050;11.696;2023-07-24T14:17:44;23.40;99.90
17968;DHT22;9109;48.050;11.696;2023-07-24T14:20:46;23.40;99.90
17968;DHT22;9109;48.050;11.696;2023-07-24T14:23:48;23.40;99.90
17968;DHT22;9109;48.050;11.696;2023-07-24T14:26:50;23.50;99.90
17968;DHT22;9109;48.050;11.696;2023-07-24T14:29:53;23.60;99.90
17968;DHT22;9109;48.050;11.696;2023-07-24T14:33:14;23.70;99.90
17968;DHT22;9109;48.050;11.696;2023-07-24T14:36:16;23.80;99.90
17968;DHT22;9109;48.050;11.696;2023-07-24T14:39:18;23.80;99.90
17968;DHT22;9109;48.050;11.696;2023-07-24T14:42:23;23.70;99.90
17968;DHT22;9109;48.050;11.696;2023-07-24T14:45:29;23.90;99.90
17968;DHT22;9109;48.050;11.696;2023-07-24T14:48:38;24.10;99.90
17968;DHT22;9109;48.050;11.696;2023-07-24T14:51:40;24.10;99.90
17968;DHT22;9109;48.050;11.696;2023-07-24T14:54:43;24.20;99.90
17968;DHT22;9109;48.050;11.696;2023-07-24T14:57:57;24.30;99.90
17968;DHT22;9109;48.050;11.696;2023-07-24T15:01:00;24.30;99.90
17968;DHT22;9109;48.050;11.696;2023-07-24T15:04:03;24.40;99.90
17968;DHT22;9109;48.050;11.696;2023-07-24T15:07:11;24.40;99.90
17968;DHT22;9109;48.050;11.696;2023-07-24T15:10:14;24.30;99.90
17968;DHT22;9109;48.050;11.696;2023-07-24T15:13:22;24.20;99.90
17968;DHT22;9109;48.050;11.696;2023-07-24T15:16:29;24.20;99.90
17968;DHT22;9109;48.050;11.696;2023-07-24T15:19:31;24.20;99.90
17968;DHT22;9109;48.050;11.696;2023-07-24T15:22:33;24.20;99.90
17968;DHT22;9109;48.050;11.696;2023-07-24T15:25:35;24.30;99.90
17968;DHT22;9109;48.050;11.696;2023-07-24T15:28:40;24.30;99.90
17968;DHT22;9109;48.050;11.696;2023-07-24T15:31:44;24.40;99.90
17968;DHT22;9109;48.050;11.696;2023-07-24T15:34:46;24.40;99.90
17968;DHT22;9109;48.050;11.696;2023-07-24T15:37:51;24.30;98.10
17968;DHT22;9109;48.050;11.696;2023-07-24T15:41:07;24.40;99.90
17968;DHT22;9109;48.050;11.696;2023-07-24T15:44:09;24.30;99.70
17968;DHT22;9109;48.050;11.696;2023-07-24T15:47:25;24.30;99.90
17968;DHT22;9109;48.050;11.696;2023-07-24T15:50:50;24.20;99.20
17968;DHT22;9109;48.050;11.696;2023-07-24T15:54:05;23.90;99.10
17968;DHT22;9109;48.050;11.696;2023-07-24T15:57:08;23.80;99.90
17968;DHT22;9109;48.050;11.696;2023-07-24T16:00:11;23.70;99.90
17968;DHT22;9109;48.050;11.696;2023-07-24T16:03:26;23.80;99.90
17968;DHT22;9109;48.050;11.696;2023-07-24T16:06:28;23.90;99.90
17968;DHT22;9109;48.050;11.696;2023-07-24T16:09:31;23.70;99.90
17968;DHT22;9109;48.050;11.696;2023-07-24T16:12:38;23.60;99.90
17968;DHT22;9109;48.050;11.696;2023-07-24T16:15:40;23.60;99.90
17968;DHT22;9109;48.050;11.696;2023-07-24T16:18:43;23.70;99.90
17968;DHT22;9109;48.050;11.696;2023-07-24T16:21:47;23.80;99.90
17968;DHT22;9109;48.050;11.696;2023-07-24T16:24:49;23.90;99.90
17968;DHT22;9109;48.050;11.696;2023-07-24T16:27:51;23.80;99.90
17968;DHT22;9109;48.050;11.696;2023-07-24T16:30:53;23.60;99.90
17968;DHT22;9109;48.050;11.696;2023-07-24T16:34:05;23.60;99.90
17968;DHT22;9109;48.050;11.696;2023-07-24T16:37:10;23.60;99.90
17968;DHT22;9109;48.050;11.696;2023-07-24T16:40:12;23.50;99.90
17968;DHT22;9109;48.050;11.696;2023-07-24T16:43:14;23.50;99.90
17968;DHT22;9109;48.050;11.696;2023-07-24T16:46:16;23.40;99.90
17968;DHT22;9109;48.050;11.696;2023-07-24T16:49:19;23.20;99.90
17968;DHT22;9109;48.050;11.696;2023-07-24T16:52:21;23.10;99.90
17968;DHT22;9109;48.050;11.696;2023-07-24T16:55:23;23.10;99.90
17968;DHT22;9109;48.050;11.696;2023-07-24T16:58:26;23.10;99.90
17968;DHT22;9109;48.050;11.696;2023-07-24T17:01:28;23.10;99.90
17968;DHT22;9109;48.050;11.696;2023-07-24T17:04:32;23.00;99.90
17968;DHT22;9109;48.050;11.696;2023-07-24T17:07:34;22.90;99.90
17968;DHT22;9109;48.050;11.696;2023-07-24T17:10:42;22.80;99.90
17968;DHT22;9109;48.050;11.696;2023-07-24T17:13:44;22.70;99.90
17968;DHT22;9109;48.050;11.696;2023-07-24T17:16:47;22.60;99.90
17968;DHT22;9109;48.050;11.696;2023-07-24T17:19:52;22.60;99.90
17968;DHT22;9109;48.050;11.696;2023-07-24T17:22:54;22.50;99.90
17968;DHT22;9109;48.050;11.696;2023-07-24T17:25:57;22.40;99.90
17968;DHT22;9109;48.050;11.696;2023-07-24T17:28:59;22.40;99.90
17968;DHT22;9109;48.050;11.696;2023-07-24T17:32:02;22.30;99.90
17968;DHT22;9109;48.050;11.696;2023-07-24T17:35:08;22.20;99.90
17968;DHT22;9109;48.050;11.696;2023-07-24T17:38:10;22.30;99.90
17968;DHT22;9109;48.050;11.696;2023-07-24T17:41:12;22.30;99.90
17968;DHT22;9109;48.050;11.696;2023-07-24T17:44:17;22.20;99.90
17968;DHT22;9109;48.050;11.696;2023-07-24T17:47:41;22.10;99.90
17968;DHT22;9109;48.050;11.696;2023-07-24T17:51:18;22.10;99.90
17968;DHT22;9109;48.050;11.696;2023-07-24T17:54:33;22.00;99.90
17968;DHT22;9109;48.050;11.696;2023-07-24T17:57:52;21.90;99.90
17968;DHT22;9109;48.050;11.696;2023-07-24T18:01:00;21.90;99.90
17968;DHT22;9109;48.050;11.696;2023-07-24T18:04:09;21.80;99.90
17968;DHT22;9109;48.050;11.696;2023-07-24T18:07:14;21.80;99.90
17968;DHT22;9109;48.050;11.696;2023-07-24T18:10:16;21.80;99.90
17968;DHT22;9109;48.050;11.696;2023-07-24T18:13:20;21.90;99.90
17968;DHT22;9109;48.050;11.696;2023-07-24T18:16:28;21.90;99.90
17968;DHT22;9109;48.050;11.696;2023-07-24T18:19:31;21.80;99.90
17968;DHT22;9109;48.050;11.696;2023-07-24T18:22:41;21.70;99.90
17968;DHT22;9109;48.050;11.696;2023-07-24T18:25:51;21.70;99.90
17968;DHT22;9109;48.050;11.696;2023-07-24T18:28:57;21.70;99.90
17968;DHT22;9109;48.050;11.696;2023-07-24T18:32:01;21.70;99.90
17968;DHT22;9109;48.050;11.696;2023-07-24T18:35:04;21.70;99.90
17968;DHT22;9109;48.050;11.696;2023-07-24T18:38:08;21.80;99.90
17968;DHT22;9109;48.050;11.696;2023-07-24T18:41:10;21.60;99.90
17968;DHT22;9109;48.050;11.696;2023-07-24T18:44:13;21.60;99.90
17968;DHT22;9109;48.050;11.696;2023-07-24T18:47:20;21.50;99.90
17968;DHT22;9109;48.050;11.696;2023-07-24T18:50:23;21.50;99.90
17968;DHT22;9109;48.050;11.696;2023-07-24T18:53:32;21.50;99.90
17968;DHT22;9109;48.050;11.696;2023-07-24T18:56:37;21.50;99.90
17968;DHT22;9109;48.050;11.696;2023-07-24T18:59:56;21.50;99.90
17968;DHT22;9109;48.050;11.696;2023-07-24T19:03:33;21.50;99.90
17968;DHT22;9109;48.050;11.696;2023-07-24T19:06:48;21.40;99.90
17968;DHT22;9109;48.050;11.696;2023-07-24T19:10:18;21.30;99.90
17968;DHT22;9109;48.050;11.696;2023-07-24T19:13:41;21.40;99.90
17968;DHT22;9109;48.050;11.696;2023-07-24T19:16:46;21.40;99.90
17968;DHT22;9109;48.050;11.696;2023-07-24T19:19:48;21.30;99.90
17968;DHT22;9109;48.050;11.696;2023-07-24T19:22:52;21.30;99.90
17968;DHT22;9109;48.050;11.696;2023-07-24T19:29:52;21.40;99.90
17968;DHT22;9109;48.050;11.696;2023-07-24T19:33:13;21.40;99.90
17968;DHT22;9109;48.050;11.696;2023-07-24T19:36:23;21.40;99.90
17968;DHT22;9109;48.050;11.696;2023-07-24T19:39:27;21.40;99.90
17968;DHT22;9109;48.050;11.696;2023-07-24T19:42:47;21.40;99.90
17968;DHT22;9109;48.050;11.696;2023-07-24T19:46:14;21.50;99.90
17968;DHT22;9109;48.050;11.696;2023-07-24T19:49:16;21.40;99.90
17968;DHT22;9109;48.050;11.696;2023-07-24T19:52:34;21.30;99.90
17968;DHT22;9109;48.050;11.696;2023-07-24T19:55:46;21.30;99.90
17968;DHT22;9109;48.050;11.696;2023-07-24T19:58:49;21.20;99.90
17968;DHT22;9109;48.050;11.696;2023-07-24T20:01:52;21.20;99.90
17968;DHT22;9109;48.050;11.696;2023-07-24T20:05:09;21.00;99.90
17968;DHT22;9109;48.050;11.696;2023-07-24T20:08:11;20.90;99.90
17968;DHT22;9109;48.050;11.696;2023-07-24T20:11:16;20.90;99.90
17968;DHT22;9109;48.050;11.696;2023-07-24T20:14:28;20.80;99.90
17968;DHT22;9109;48.050;11.696;2023-07-24T20:26:10;20.70;99.90
17968;DHT22;9109;48.050;11.696;2023-07-24T20:29:19;20.70;99.90
17968;DHT22;9109;48.050;11.696;2023-07-24T20:32:36;20.70;99.90
17968;DHT22;9109;48.050;11.696;2023-07-24T20:36:06;20.70;99.90
17968;DHT22;9109;48.050;11.696;2023-07-24T20:39:31;20.80;99.90
17968;DHT22;9109;48.050;11.696;2023-07-24T20:42:49;20.60;99.90
17968;DHT22;9109;48.050;11.696;2023-07-24T20:45:51;20.60;99.90
17968;DHT22;9109;48.050;11.696;2023-07-24T20:48:57;20.60;99.90
17968;DHT22;9109;48.050;11.696;2023-07-24T20:52:01;20.70;99.90
17968;DHT22;9109;48.050;11.696;2023-07-24T20:55:03;20.70;99.90
17968;DHT22;9109;48.050;11.696;2023-07-24T20:58:07;20.70;99.90
17968;DHT22;9109;48.050;11.696;2023-07-24T21:01:19;20.70;99.90
17968;DHT22;9109;48.050;11.696;2023-07-24T21:04:47;20.70;99.90
17968;DHT22;9109;48.050;11.696;2023-07-24T21:07:53;20.70;99.90
17968;DHT22;9109;48.050;11.696;2023-07-24T21:10:55;20.60;99.90
17968;DHT22;9109;48.050;11.696;2023-07-24T21:13:59;20.60;99.90
17968;DHT22;9109;48.050;11.696;2023-07-24T21:17:01;20.60;99.90
17968;DHT22;9109;48.050;11.696;2023-07-24T21:20:05;20.70;99.90
17968;DHT22;9109;48.050;11.696;2023-07-24T21:23:08;20.70;99.90
17968;DHT22;9109;48.050;11.696;2023-07-24T21:26:10;20.70;99.90
17968;DHT22;9109;48.050;11.696;2023-07-24T21:32:59;20.70;99.90
17968;DHT22;9109;48.050;11.696;2023-07-24T21:36:06;20.70;99.90
17968;DHT22;9109;48.050;11.696;2023-07-24T21:39:17;20.60;99.90
17968;DHT22;9109;48.050;11.696;2023-07-24T21:42:20;20.50;99.90
17968;DHT22;9109;48.050;11.696;2023-07-24T21:45:23;20.50;99.90
17968;DHT22;9109;48.050;11.696;2023-07-24T21:48:26;20.40;99.90
17968;DHT22;9109;48.050;11.696;2023-07-24T21:51:28;20.30;99.90
17968;DHT22;9109;48.050;11.696;2023-07-24T21:54:30;20.20;99.90
17968;DHT22;9109;48.050;11.696;2023-07-24T21:57:32;20.10;99.90
17968;DHT22;9109;48.050;11.696;2023-07-24T22:00:37;20.00;99.90
17968;DHT22;9109;48.050;11.696;2023-07-24T22:03:45;19.90;99.90
17968;DHT22;9109;48.050;11.696;2023-07-24T22:06:52;19.80;99.90
17968;DHT22;9109;48.050;11.696;2023-07-24T22:10:04;19.70;99.90
17968;DHT22;9109;48.050;11.696;2023-07-24T22:13:14;19.70;99.90
17968;DHT22;9109;48.050;11.696;2023-07-24T22:16:16;19.60;99.90
17968;DHT22;9109;48.050;11.696;2023-07-24T22:19:20;19.60;99.90
17968;DHT22;9109;48.050;11.696;2023-07-24T22:22:25;19.50;99.90
17968;DHT22;9109;48.050;11.696;2023-07-24T22:25:33;19.50;99.90
17968;DHT22;9109;48.050;11.696;2023-07-24T22:28:35;19.50;99.90
17968;DHT22;9109;48.050;11.696;2023-07-24T22:31:37;19.50;99.90
17968;DHT22;9109;48.050;11.696;2023-07-24T22:34:42;19.50;99.90
17968;DHT22;9109;48.050;11.696;2023-07-24T22:37:49;19.50;99.90
17968;DHT22;9109;48.050;11.696;2023-07-24T22:40:51;19.40;99.90
17968;DHT22;9109;48.050;11.696;2023-07-24T22:43:53;19.30;99.90
17968;DHT22;9109;48.050;11.696;2023-07-24T22:46:55;19.30;99.90
17968;DHT22;9109;48.050;11.696;2023-07-24T22:50:05;19.30;99.90
17968;DHT22;9109;48.050;11.696;2023-07-24T22:53:13;19.30;99.90
17968;DHT22;9109;48.050;11.696;2023-07-24T22:56:15;19.20;99.90
17968;DHT22;9109;48.050;11.696;2023-07-24T22:59:19;19.20;99.90
